Wortham, Texas
Current Conditions -  °F | °C
As of 3:15 AM on Monday 22 Dec 2014 (Local Time) from KLXY Reporting Station
Overcast Overcast  
Wind Chill: 56°   Ceiling: 1700
Heat Index: 56°   Visibility: 10mi
Dew Point: 52°   Wind: 16mph
Humidity: 85%   Direction: 190°S
Pressure: 29.71"   Gusts: 25mph
Location:  31.79°N, 96.46°W
Report Text: KLXY 220915Z AUTO 19014G22KT 10SM OVC017 14/11 A2971 RMK AO2 T01360111
Loading
Personal Weather Stations






























Interactive Weather Map New forecast layout! Learn more

10-Day Weather Forecast

Advertisements
Track Severe Weather on mobile